Time;durP1;ratioP1;P1;durP2;ratioP2;P2;SDS_P1;SDS_P2;PMS_P1;PMS_P2;Temp;Humidity;BMP_temperature;BMP_pressure;BME280_temperature;BME280_humidity;BME280_pressure;Samples;Min_cycle;Max_cycle;Signal;HPM_P1;HPM_P2
2023/05/16 00:00:52;;;;;;;5.00;3.30;;;;;;;16.03;44.73;99358.40;107217;1257;68077;-40
2023/05/16 00:03:19;;;;;;;7.70;3.50;;;;;;;16.03;44.58;99359.04;107260;1257;74913;-40
2023/05/16 00:05:47;;;;;;;6.40;3.00;;;;;;;16.02;44.44;99355.52;107224;1257;61696;-40
2023/05/16 00:08:14;;;;;;;5.50;3.20;;;;;;;16.03;44.41;99355.21;107090;1257;62766;-40
2023/05/16 00:10:41;;;;;;;6.20;3.10;;;;;;;16.03;44.46;99356.39;107161;1262;75338;-40
2023/05/16 00:13:08;;;;;;;6.90;3.70;;;;;;;16.02;44.48;99356.15;107224;1256;68854;-40
2023/05/16 00:15:37;;;;;;;4.70;3.10;;;;;;;16.01;44.56;99362.09;107186;1257;74239;-40
2023/05/16 00:18:04;;;;;;;4.40;3.40;;;;;;;15.99;44.34;99360.84;107261;1257;62521;-40
2023/05/16 00:20:33;;;;;;;6.30;3.20;;;;;;;15.99;44.46;99359.36;107229;1257;62471;-40
2023/05/16 00:23:00;;;;;;;5.30;3.00;;;;;;;15.98;44.34;99358.27;107238;1258;74448;-40
2023/05/16 00:25:28;;;;;;;6.40;3.40;;;;;;;15.98;44.28;99354.68;107247;1258;69351;-40
2023/05/16 00:27:55;;;;;;;3.40;2.90;;;;;;;15.98;44.17;99353.27;107216;1263;73390;-40
2023/05/16 00:30:22;;;;;;;6.90;3.30;;;;;;;15.97;44.16;99347.42;107229;1257;62362;-40
2023/05/16 00:32:50;;;;;;;3.80;3.10;;;;;;;15.96;44.16;99347.51;107284;1257;62513;-40
2023/05/16 00:35:18;;;;;;;6.40;3.40;;;;;;;15.96;44.09;99348.83;107092;1256;75728;-40
2023/05/16 00:37:45;;;;;;;4.30;2.90;;;;;;;15.95;44.07;99350.55;107007;1257;70437;-40
2023/05/16 00:40:12;;;;;;;7.10;3.30;;;;;;;15.96;43.74;99341.41;106992;1258;74339;-40
2023/05/16 00:42:39;;;;;;;4.60;3.10;;;;;;;15.97;43.65;99345.85;107136;1257;61503;-40
2023/05/16 00:45:07;;;;;;;3.40;2.80;;;;;;;15.98;43.51;99344.84;107077;1258;61976;-40
2023/05/16 00:47:35;;;;;;;5.00;3.00;;;;;;;15.99;43.50;99349.36;107226;1257;76135;-40
2023/05/16 00:50:03;;;;;;;4.10;3.20;;;;;;;15.99;43.43;99347.80;107090;1257;69371;-40
2023/05/16 00:52:32;;;;;;;4.90;3.00;;;;;;;16.00;43.38;99349.90;107233;1257;72891;-40
2023/05/16 00:55:02;;;;;;;7.70;2.90;;;;;;;16.02;43.45;99348.10;107101;1257;60623;-40
2023/05/16 00:57:30;;;;;;;3.80;2.80;;;;;;;16.03;43.29;99348.73;107249;1257;62636;-40
2023/05/16 00:59:57;;;;;;;4.00;2.80;;;;;;;16.04;43.11;99349.02;107198;1257;76179;-40
2023/05/16 01:02:27;;;;;;;6.00;3.10;;;;;;;16.04;43.21;99347.16;107236;1257;70065;-39
2023/05/16 01:04:55;;;;;;;;;;;;;;;16.03;43.33;99352.64;107218;1257;75205;-40
2023/05/16 01:07:22;;;;;;;5.40;3.00;;;;;;;15.96;43.48;99348.75;107099;1260;60623;-40
2023/05/16 01:09:50;;;;;;;4.50;2.90;;;;;;;15.92;43.71;99345.71;107076;1256;61138;-40
2023/05/16 01:12:31;;;;;;;6.30;3.10;;;;;;;15.94;43.78;99341.73;107092;1257;75708;-39
2023/05/16 01:15:14;;;;;;;8.90;3.30;;;;;;;15.94;43.81;99337.89;107243;1262;68131;-40
2023/05/16 01:18:06;;;;;;;7.40;3.10;;;;;;;15.91;43.96;99336.11;107316;1257;74547;-40
2023/05/16 01:20:37;;;;;;;5.30;2.80;;;;;;;15.88;44.09;99330.10;107068;1256;62815;-40
2023/05/16 01:23:30;;;;;;;6.90;2.90;;;;;;;15.86;44.40;99326.83;107277;1257;61433;-40
2023/05/16 01:28:08;;;;;;;3.90;3.10;;;;;;;15.87;44.36;99325.89;104378;1294;600168;-40
2023/05/16 01:30:37;;;;;;;6.80;3.70;;;;;;;15.86;44.47;99324.02;106563;1267;60557;-39
2023/05/16 01:33:07;;;;;;;7.30;3.10;;;;;;;15.86;44.57;99327.38;106607;1266;60935;-39
2023/05/16 01:35:39;;;;;;;5.80;3.00;;;;;;;15.85;44.72;99323.00;106605;1267;72155;-40
2023/05/16 01:38:17;;;;;;;6.70;2.90;;;;;;;15.85;44.67;99322.14;106518;1267;67374;-39
2023/05/16 01:41:08;;;;;;;5.30;3.30;;;;;;;15.84;44.70;99314.57;106512;1270;223972;-39
2023/05/16 01:43:47;;;;;;;4.30;3.10;;;;;;;15.85;45.04;99310.81;106644;1264;61027;-39
2023/05/16 01:46:20;;;;;;;4.70;3.30;;;;;;;15.84;44.98;99311.68;106834;1264;60878;-39
2023/05/16 01:48:56;;;;;;;4.70;3.40;;;;;;;15.82;45.02;99308.88;106845;1264;73346;-39
2023/05/16 01:51:24;;;;;;;4.70;3.20;;;;;;;15.80;45.16;99309.19;106842;1264;68213;-39
2023/05/16 01:58:46;;;;;;;5.10;3.60;;;;;;;15.74;45.27;99304.83;106797;1264;59566;-39
2023/05/16 02:01:13;;;;;;;4.30;3.10;;;;;;;15.69;45.52;99303.13;106697;1264;62658;-39
2023/05/16 02:03:40;;;;;;;6.40;3.30;;;;;;;15.68;45.45;99297.52;106814;1264;74028;-39
2023/05/16 02:06:08;;;;;;;4.70;3.40;;;;;;;15.69;45.48;99299.38;106766;1264;69520;-39
2023/05/16 02:08:35;;;;;;;4.90;3.60;;;;;;;15.67;45.62;99295.34;106783;1268;74905;-39
2023/05/16 02:11:02;;;;;;;6.80;3.50;;;;;;;15.66;45.68;99297.30;106680;1264;61967;-39
2023/05/16 02:13:29;;;;;;;5.60;3.60;;;;;;;15.66;45.94;99301.66;106706;1264;61171;-39
2023/05/16 02:16:03;;;;;;;6.60;3.70;;;;;;;15.66;45.91;99300.02;106737;1269;72944;-38
2023/05/16 02:18:34;;;;;;;5.70;3.70;;;;;;;15.66;46.01;99302.05;106745;1268;67365;-39
2023/05/16 02:21:01;;;;;;;5.60;3.50;;;;;;;15.66;46.01;99303.06;106773;1262;74722;-39
2023/05/16 02:23:29;;;;;;;5.30;3.60;;;;;;;15.66;46.06;99305.10;107007;1260;60970;-38
2023/05/16 02:25:56;;;;;;;7.10;3.60;;;;;;;15.64;46.09;99301.75;106979;1266;62712;-39
2023/05/16 02:28:23;;;;;;;7.70;3.70;;;;;;;15.65;46.30;99303.36;106983;1261;74995;-40
2023/05/16 02:30:59;;;;;;;4.60;3.80;;;;;;;15.64;46.54;99300.96;106875;1263;69717;-39
2023/05/16 02:33:28;;;;;;;7.10;3.50;;;;;;;15.64;46.67;99302.91;107008;1260;72869;-39
2023/05/16 02:35:55;;;;;;;7.00;3.50;;;;;;;15.62;46.49;99304.24;106982;1261;62593;-39
2023/05/16 02:38:25;;;;;;;5.50;3.50;;;;;;;15.63;46.50;99302.92;106904;1260;59946;-40
2023/05/16 02:40:54;;;;;;;6.40;3.70;;;;;;;15.62;46.79;99307.69;106966;1260;74166;-39
2023/05/16 02:43:22;;;;;;;5.00;3.60;;;;;;;15.61;46.94;99307.76;106867;1266;70285;-39
2023/05/16 02:45:49;;;;;;;5.90;3.30;;;;;;;15.59;46.90;99302.38;106959;1264;71903;-39
2023/05/16 02:48:16;;;;;;;5.80;3.80;;;;;;;15.58;47.00;99305.11;106972;1260;60471;-39
2023/05/16 02:50:43;;;;;;;6.30;3.60;;;;;;;15.58;47.10;99307.69;106734;1261;60569;-39
2023/05/16 02:53:11;;;;;;;5.00;3.50;;;;;;;15.58;47.11;99305.10;106882;1260;74307;-40
2023/05/16 02:55:38;;;;;;;6.40;3.50;;;;;;;15.57;47.00;99303.71;106978;1265;69811;-39
2023/05/16 02:58:05;;;;;;;6.10;3.60;;;;;;;15.57;47.08;99301.77;107021;1260;75019;-39
2023/05/16 03:00:33;;;;;;;5.00;3.50;;;;;;;15.57;47.13;99296.69;106972;1262;62477;-40
2023/05/16 03:03:03;;;;;;;5.00;3.60;;;;;;;15.57;47.41;99295.13;106836;1260;62717;-39
2023/05/16 03:05:30;;;;;;;8.70;3.90;;;;;;;15.56;47.36;99290.67;106988;1260;75263;-39
2023/05/16 03:07:58;;;;;;;6.30;3.70;;;;;;;15.56;47.51;99288.18;106882;1263;67378;-39
2023/05/16 03:10:26;;;;;;;6.70;3.90;;;;;;;15.55;47.60;99283.34;106850;1263;74618;-40
2023/05/16 03:12:53;;;;;;;6.60;3.80;;;;;;;15.56;47.67;99286.31;106868;1266;61327;-40
2023/05/16 03:15:21;;;;;;;5.00;3.90;;;;;;;15.55;47.89;99293.65;106892;1267;60185;-40
2023/05/16 03:17:48;;;;;;;5.40;3.90;;;;;;;15.53;47.75;99293.65;106865;1260;75333;-40
2023/05/16 03:20:15;;;;;;;10.00;3.90;;;;;;;15.50;47.82;99294.48;106830;1260;69586;-40
2023/05/16 03:22:44;;;;;;;5.30;3.70;;;;;;;15.43;48.03;99287.95;106792;1266;74578;-40
2023/05/16 03:25:11;;;;;;;6.30;4.10;;;;;;;15.45;48.20;99298.86;106947;1260;61702;-39
2023/05/16 03:27:39;;;;;;;6.50;4.00;;;;;;;15.43;48.09;99299.48;106857;1261;59497;-40
2023/05/16 03:30:08;;;;;;;5.20;3.70;;;;;;;15.42;48.26;99303.72;107600;1254;74021;-40
2023/05/16 03:32:36;;;;;;;6.40;3.80;;;;;;;15.42;48.51;99304.57;107482;1254;68166;-40
2023/05/16 03:35:04;;;;;;;5.70;3.80;;;;;;;15.42;48.58;99304.96;107477;1254;72043;-40
2023/05/16 03:37:31;;;;;;;5.90;3.80;;;;;;;15.40;48.50;99305.35;107581;1253;62674;-40
2023/05/16 03:39:59;;;;;;;6.20;3.60;;;;;;;15.39;48.47;99307.32;107540;1259;60155;-40
2023/05/16 03:42:26;;;;;;;6.70;4.00;;;;;;;15.35;48.47;99308.02;107447;1254;75184;-40
2023/05/16 03:44:53;;;;;;;8.90;3.70;;;;;;;15.35;48.67;99307.93;107610;1253;69651;-40
2023/05/16 03:47:20;;;;;;;5.50;3.90;;;;;;;15.38;48.86;99315.11;107576;1254;75025;-40
2023/05/16 03:49:47;;;;;;;11.70;3.70;;;;;;;15.35;48.85;99316.05;107533;1254;60630;-40
2023/05/16 03:52:15;;;;;;;4.70;3.50;;;;;;;15.38;48.97;99320.11;107490;1254;62420;-40
2023/05/16 03:54:42;;;;;;;6.40;3.70;;;;;;;15.36;48.96;99325.25;107611;1256;75345;-40
2023/05/16 03:57:09;;;;;;;6.40;3.70;;;;;;;15.35;49.14;99331.52;107510;1254;69595;-40
2023/05/16 03:59:37;;;;;;;6.30;3.80;;;;;;;15.35;48.97;99335.64;107481;1254;74504;-40
2023/05/16 04:02:05;;;;;;;6.30;3.60;;;;;;;15.33;49.01;99345.32;107570;1254;61347;-40
2023/05/16 04:04:32;;;;;;;8.60;3.60;;;;;;;15.30;48.80;99351.26;107514;1254;61119;-40
2023/05/16 04:07:01;;;;;;;6.10;3.90;;;;;;;15.28;48.69;99356.64;107556;1254;74158;-40
2023/05/16 04:09:28;;;;;;;6.40;3.90;;;;;;;15.28;48.73;99367.88;107587;1254;68726;-40
2023/05/16 04:11:55;;;;;;;6.00;4.00;;;;;;;15.28;48.52;99372.71;107575;1254;74890;-40
2023/05/16 04:14:23;;;;;;;5.90;3.80;;;;;;;15.28;48.23;99375.60;107596;1254;62600;-40
2023/05/16 04:16:50;;;;;;;8.50;3.70;;;;;;;15.28;48.11;99380.14;107455;1252;60251;-40
2023/05/16 04:19:17;;;;;;;7.60;3.50;;;;;;;15.29;48.07;99383.80;107565;1253;74978;-40
2023/05/16 04:21:45;;;;;;;10.50;4.10;;;;;;;15.30;48.09;99382.63;107500;1254;69407;-40
2023/05/16 04:24:12;;;;;;;6.30;3.60;;;;;;;15.30;47.95;99377.40;107521;1253;74242;-39
2023/05/16 04:26:40;;;;;;;5.50;3.50;;;;;;;15.28;47.82;99373.49;107456;1254;59908;-40
2023/05/16 04:29:07;;;;;;;7.90;4.00;;;;;;;15.26;47.84;99371.08;107413;1256;59808;-40
2023/05/16 04:31:35;;;;;;;10.50;3.90;;;;;;;15.25;47.65;99367.41;107386;1254;75365;-39
2023/05/16 04:34:03;;;;;;;5.30;3.70;;;;;;;15.26;47.69;99366.31;107579;1254;68215;-40
2023/05/16 04:36:31;;;;;;;5.50;3.60;;;;;;;15.27;47.44;99362.57;107565;1256;74500;-40
2023/05/16 04:38:58;;;;;;;8.20;4.10;;;;;;;15.28;47.47;99365.92;107569;1254;60961;-40
2023/05/16 04:41:25;;;;;;;5.40;3.70;;;;;;;15.30;47.67;99363.65;107461;1254;59503;-40
2023/05/16 04:43:53;;;;;;;6.70;3.80;;;;;;;15.30;47.71;99363.20;107515;1254;73796;-40
2023/05/16 04:46:20;;;;;;;7.10;3.90;;;;;;;15.31;47.82;99367.33;107561;1253;70250;-40
2023/05/16 04:48:48;;;;;;;5.70;3.80;;;;;;;15.32;48.03;99371.07;107588;1254;74917;-40
2023/05/16 04:51:15;;;;;;;5.70;3.80;;;;;;;15.32;48.17;99371.85;107582;1256;62842;-40
2023/05/16 04:53:42;;;;;;;6.00;3.60;;;;;;;15.31;48.30;99375.44;107502;1254;60316;-40
2023/05/16 04:56:09;;;;;;;5.20;3.40;;;;;;;15.28;48.45;99380.67;107513;1253;74306;-40
2023/05/16 04:58:37;;;;;;;6.60;3.50;;;;;;;15.27;48.40;99380.83;107540;1257;66503;-39
2023/05/16 05:01:06;;;;;;;4.10;3.50;;;;;;;15.26;48.89;99378.88;107553;1253;74854;-39
2023/05/16 05:03:33;;;;;;;4.70;3.50;;;;;;;15.25;49.08;99379.81;107393;1259;60845;-39
2023/05/16 05:06:01;;;;;;;4.90;4.00;;;;;;;15.24;49.42;99375.91;107525;1252;62618;-39
2023/05/16 05:08:28;;;;;;;9.30;4.10;;;;;;;15.23;49.66;99375.60;107530;1254;75302;-39
2023/05/16 05:10:57;;;;;;;6.80;3.50;;;;;;;15.20;49.45;99374.34;107581;1253;70078;-39
2023/05/16 05:13:24;;;;;;;5.10;3.70;;;;;;;15.19;49.47;99375.92;107581;1254;74594;-39
2023/05/16 05:15:52;;;;;;;5.90;4.20;;;;;;;15.19;49.75;99380.12;107634;1254;62647;-39
2023/05/16 05:18:19;;;;;;;7.10;3.80;;;;;;;15.20;49.59;99383.71;107571;1253;61666;-39
2023/05/16 05:20:46;;;;;;;5.50;3.90;;;;;;;15.21;49.78;99383.02;107604;1254;74538;-39
2023/05/16 05:23:13;;;;;;;9.30;4.20;;;;;;;15.21;49.96;99375.21;107518;1254;68916;-39
2023/05/16 05:25:40;;;;;;;5.30;3.60;;;;;;;15.23;49.99;99372.00;107560;1253;73638;-39
2023/05/16 05:28:08;;;;;;;5.70;3.80;;;;;;;15.25;49.60;99372.64;107588;1254;61102;-39
2023/05/16 05:30:35;;;;;;;5.40;4.00;;;;;;;15.27;49.40;99372.02;107493;1257;60955;-39
2023/05/16 05:33:02;;;;;;;6.30;3.60;;;;;;;15.24;49.42;99367.56;107576;1254;74238;-39
2023/05/16 05:35:30;;;;;;;5.00;3.80;;;;;;;15.31;49.38;99379.50;107572;1254;69646;-39
2023/05/16 05:37:57;;;;;;;4.20;3.30;;;;;;;15.33;49.44;99379.98;107553;1254;74789;-39
2023/05/16 05:40:24;;;;;;;6.50;3.80;;;;;;;15.36;49.10;99377.55;107575;1257;60913;-39
2023/05/16 05:42:51;;;;;;;4.50;3.40;;;;;;;15.39;48.86;99369.19;107575;1254;61027;-39
2023/05/16 05:45:20;;;;;;;4.50;3.60;;;;;;;15.43;49.16;99367.71;107478;1253;75713;-40
2023/05/16 05:47:47;;;;;;;5.30;3.60;;;;;;;15.49;49.24;99369.52;107386;1254;70301;-39
2023/05/16 05:50:15;;;;;;;6.30;3.80;;;;;;;15.55;49.21;99366.10;107590;1254;74247;-40
2023/05/16 05:52:42;;;;;;;4.90;3.60;;;;;;;15.59;48.87;99363.44;107554;1254;62830;-39
2023/05/16 05:55:09;;;;;;;6.50;3.70;;;;;;;15.65;48.87;99369.05;107416;1254;61155;-39
2023/05/16 05:57:37;;;;;;;6.80;3.70;;;;;;;15.70;48.91;99367.48;107401;1254;74879;-40
2023/05/16 06:00:06;;;;;;;7.70;4.20;;;;;;;15.74;48.73;99364.90;107520;1253;69875;-39
2023/05/16 06:02:35;;;;;;;4.60;3.60;;;;;;;15.76;48.60;99356.55;107484;1255;74135;-40
2023/05/16 06:05:04;;;;;;;5.50;3.80;;;;;;;15.77;48.43;99351.60;107199;1256;62398;-39
2023/05/16 06:07:31;;;;;;;6.00;4.00;;;;;;;15.79;48.13;99351.69;107298;1260;61488;-39
2023/05/16 06:10:03;;;;;;;6.50;3.80;;;;;;;15.79;48.31;99344.27;107253;1255;73735;-39
2023/05/16 06:12:31;;;;;;;5.60;3.70;;;;;;;15.79;48.22;99339.11;107310;1256;68811;-40
2023/05/16 06:14:58;;;;;;;7.20;3.90;;;;;;;15.78;48.17;99339.11;107244;1256;74675;-39
2023/05/16 06:17:25;;;;;;;5.90;4.40;;;;;;;15.78;48.29;99339.59;107261;1256;61229;-39
2023/05/16 06:19:53;;;;;;;5.30;3.70;;;;;;;15.79;47.95;99348.48;107204;1256;61218;-39
2023/05/16 06:22:20;;;;;;;6.70;3.70;;;;;;;15.79;48.11;99349.88;107218;1255;73991;-39
2023/05/16 06:24:47;;;;;;;5.60;3.90;;;;;;;15.79;47.97;99350.66;107268;1256;68836;-39
2023/05/16 06:27:15;;;;;;;5.50;3.90;;;;;;;15.79;47.77;99342.00;107379;1254;75054;-39
2023/05/16 06:29:42;;;;;;;6.90;3.70;;;;;;;15.79;47.68;99338.88;107336;1254;62325;-39
2023/05/16 06:32:10;;;;;;;6.80;3.80;;;;;;;15.78;47.97;99340.05;107290;1254;62027;-39
2023/05/16 06:34:39;;;;;;;4.40;3.30;;;;;;;15.77;47.68;99337.64;107382;1256;75411;-39
2023/05/16 06:37:07;;;;;;;6.60;3.90;;;;;;;15.75;47.76;99339.34;107278;1254;70278;-39
2023/05/16 06:39:34;;;;;;;4.70;3.60;;;;;;;15.74;48.01;99343.66;107340;1260;74687;-39
2023/05/16 06:42:01;;;;;;;7.10;3.90;;;;;;;15.72;48.04;99335.23;107322;1255;60455;-39
2023/05/16 06:44:30;;;;;;;8.20;4.00;;;;;;;15.74;48.07;99334.67;107413;1254;60659;-39
2023/05/16 06:46:58;;;;;;;6.70;3.70;;;;;;;15.73;48.02;99338.50;107346;1253;76043;-40
2023/05/16 06:49:25;;;;;;;4.70;3.60;;;;;;;15.73;47.74;99332.18;107388;1254;70235;-39
2023/05/16 06:51:52;;;;;;;6.10;3.90;;;;;;;15.73;47.96;99342.48;107354;1254;74761;-39
2023/05/16 06:54:20;;;;;;;6.10;4.00;;;;;;;15.73;47.71;99350.55;107354;1256;62084;-39
2023/05/16 06:56:47;;;;;;;7.80;4.10;;;;;;;15.71;47.80;99350.21;107451;1256;61893;-39
2023/05/16 06:59:14;;;;;;;5.40;4.30;;;;;;;15.69;48.22;99355.14;107339;1254;76188;-39
2023/05/16 07:01:42;;;;;;;8.20;3.90;;;;;;;15.69;48.29;99354.83;107361;1254;70311;-39
2023/05/16 07:04:09;;;;;;;8.10;3.90;;;;;;;15.68;48.44;99359.44;107387;1254;74713;-39
2023/05/16 07:06:37;;;;;;;5.40;4.00;;;;;;;15.68;48.51;99358.19;107356;1254;62695;-39
2023/05/16 07:09:04;;;;;;;7.90;4.60;;;;;;;15.71;48.64;99354.75;107406;1254;62015;-39
2023/05/16 07:11:32;;;;;;;6.60;4.60;;;;;;;15.75;48.66;99357.80;107309;1254;75628;-39
2023/05/16 07:13:59;;;;;;;6.10;4.20;;;;;;;15.77;48.73;99350.27;107326;1254;69892;-39
2023/05/16 07:16:27;;;;;;;6.70;4.10;;;;;;;15.79;48.53;99345.82;107371;1254;74197;-39
2023/05/16 07:18:54;;;;;;;5.60;4.00;;;;;;;15.79;48.46;99344.50;107415;1254;62734;-39
2023/05/16 07:21:22;;;;;;;7.40;4.20;;;;;;;15.81;48.63;99345.05;107299;1254;61660;-40
2023/05/16 07:23:49;;;;;;;6.50;4.10;;;;;;;15.81;48.46;99349.97;107281;1254;76159;-39
2023/05/16 07:26:17;;;;;;;4.80;3.70;;;;;;;15.81;48.79;99350.66;107290;1254;69898;-39
2023/05/16 07:28:44;;;;;;;6.90;4.30;;;;;;;15.85;48.89;99357.05;107136;1255;74600;-39
2023/05/16 07:31:12;;;;;;;6.90;3.80;;;;;;;15.89;48.24;99360.41;107351;1254;60256;-39
2023/05/16 07:33:39;;;;;;;6.30;3.70;;;;;;;15.91;47.79;99369.86;107437;1254;62361;-39
2023/05/16 07:36:07;;;;;;;6.90;4.10;;;;;;;15.93;47.65;99375.95;107324;1254;75977;-39
2023/05/16 07:38:41;;;;;;;4.90;3.60;;;;;;;15.97;47.21;99380.70;107353;1254;69986;-40
2023/05/16 07:41:08;;;;;;;4.80;3.80;;;;;;;16.00;46.46;99382.25;107438;1254;73913;-39
2023/05/16 07:43:36;;;;;;;5.90;3.80;;;;;;;16.05;46.03;99380.75;107341;1254;61756;-40
2023/05/16 07:46:04;;;;;;;4.50;3.50;;;;;;;16.13;46.17;99378.55;107347;1254;61910;-39
2023/05/16 07:48:31;;;;;;;6.00;3.60;;;;;;;16.24;46.33;99371.55;107321;1254;75149;-39
2023/05/16 07:50:58;;;;;;;7.40;3.60;;;;;;;16.38;45.47;99370.79;107374;1254;70318;-39
2023/05/16 07:53:25;;;;;;;4.90;3.20;;;;;;;16.52;45.39;99369.94;107406;1254;74574;-39
2023/05/16 07:55:53;;;;;;;5.00;3.90;;;;;;;16.69;45.32;99368.39;107343;1254;62645;-40
2023/05/16 07:58:20;;;;;;;6.00;3.80;;;;;;;16.91;45.20;99376.86;107312;1254;60500;-39
2023/05/16 08:00:48;;;;;;;7.60;3.90;;;;;;;17.14;45.27;99373.51;107363;1254;76007;-39
2023/05/16 08:03:15;;;;;;;5.80;3.40;;;;;;;17.37;44.30;99371.75;107282;1260;70294;-39
2023/05/16 08:05:43;;;;;;;7.00;3.50;;;;;;;17.54;43.44;99370.66;107363;1254;75000;-39
2023/05/16 08:08:10;;;;;;;7.90;3.80;;;;;;;17.66;43.34;99374.56;107330;1254;61783;-39
2023/05/16 08:10:37;;;;;;;5.70;3.70;;;;;;;17.75;42.80;99375.27;107358;1254;60346;-39
2023/05/16 08:13:05;;;;;;;4.40;3.70;;;;;;;17.83;42.92;99368.61;107330;1254;74447;-39
2023/05/16 08:15:33;;;;;;;5.70;3.30;;;;;;;17.91;42.57;99367.35;107429;1254;68625;-38
2023/05/16 08:18:01;;;;;;;5.00;3.40;;;;;;;17.99;42.06;99367.50;107352;1254;75069;-38
2023/05/16 08:20:28;;;;;;;4.10;3.50;;;;;;;18.01;41.65;99364.73;107336;1254;62343;-38
2023/05/16 08:22:55;;;;;;;4.10;3.40;;;;;;;18.04;42.07;99364.77;107335;1260;62270;-38
2023/05/16 08:25:22;;;;;;;6.20;3.60;;;;;;;18.10;41.86;99367.99;107314;1254;75705;-38
2023/05/16 08:27:50;;;;;;;14.60;3.70;;;;;;;18.18;41.46;99376.13;107340;1254;70017;-39
2023/05/16 08:30:18;;;;;;;9.60;4.20;;;;;;;18.23;41.02;99371.38;107296;1254;74876;-38
2023/05/16 08:32:46;;;;;;;5.30;3.80;;;;;;;18.29;41.43;99372.23;107311;1254;62183;-38
2023/05/16 08:35:14;;;;;;;8.80;3.90;;;;;;;18.35;40.31;99374.36;107279;1254;62571;-39
2023/05/16 08:37:41;;;;;;;5.20;3.60;;;;;;;18.37;40.52;99374.27;107293;1254;76215;-39
2023/05/16 08:40:09;;;;;;;7.10;3.50;;;;;;;18.36;40.60;99370.11;107246;1254;70069;-39
2023/05/16 08:42:37;;;;;;;5.90;3.70;;;;;;;18.49;40.07;99380.45;107349;1254;72065;-40
2023/05/16 08:45:05;;;;;;;6.20;3.70;;;;;;;18.51;39.83;99385.61;107446;1254;62393;-39
2023/05/16 08:47:35;;;;;;;7.50;4.20;;;;;;;18.50;39.69;99381.38;107334;1254;61993;-39
2023/05/16 08:50:03;;;;;;;10.30;3.80;;;;;;;18.53;39.69;99388.50;107295;1254;75212;-39
2023/05/16 08:52:32;;;;;;;8.90;3.70;;;;;;;18.52;39.57;99384.34;107380;1254;70382;-39
2023/05/16 08:55:06;;;;;;;5.30;3.60;;;;;;;18.52;39.78;99387.80;107357;1256;74596;-39
2023/05/16 08:57:37;;;;;;;6.50;3.70;;;;;;;18.54;40.23;99382.84;107396;1254;62434;-39
2023/05/16 09:00:10;;;;;;;6.20;3.70;;;;;;;18.56;40.08;99379.70;107364;1254;60445;-39
2023/05/16 09:02:39;;;;;;;11.50;3.90;;;;;;;18.58;39.78;99386.98;107300;1254;75934;-39
2023/05/16 09:05:09;;;;;;;8.10;3.90;;;;;;;18.55;39.85;99391.55;107406;1254;70274;-39
2023/05/16 09:07:36;;;;;;;5.90;3.60;;;;;;;18.53;40.03;99393.29;107390;1254;73276;-39
2023/05/16 09:10:05;;;;;;;8.80;3.90;;;;;;;18.54;40.39;99390.46;107347;1254;61744;-38
2023/05/16 09:12:33;;;;;;;10.50;4.20;;;;;;;18.51;40.30;99390.33;107336;1254;62470;-38
2023/05/16 09:15:05;;;;;;;6.80;3.80;;;;;;;18.44;40.45;99389.86;107295;1254;73115;-39
2023/05/16 09:17:37;;;;;;;5.50;3.70;;;;;;;18.37;40.70;99394.73;107313;1254;70261;-38
2023/05/16 09:20:14;;;;;;;7.10;4.00;;;;;;;18.32;40.84;99403.65;107368;1255;72307;-38
2023/05/16 09:22:55;;;;;;;4.20;3.50;;;;;;;18.24;40.79;99405.86;107319;1254;62225;-38
2023/05/16 09:25:25;;;;;;;7.40;3.80;;;;;;;18.18;41.41;99404.20;107393;1254;62219;-39
2023/05/16 09:27:56;;;;;;;6.90;4.30;;;;;;;18.16;41.53;99404.92;107321;1260;75059;-39
2023/05/16 09:30:28;;;;;;;6.90;4.30;;;;;;;18.15;41.71;99407.77;107468;1255;68553;-39
2023/05/16 09:32:56;;;;;;;6.30;4.00;;;;;;;18.14;42.05;99401.90;107421;1254;74806;-39
2023/05/16 09:35:23;;;;;;;6.50;3.90;;;;;;;18.15;41.60;99402.28;107334;1255;61778;-38
2023/05/16 09:38:15;;;;;;;8.70;3.50;;;;;;;18.10;41.60;99407.20;107323;1260;61633;-38
2023/05/16 09:40:43;;;;;;;5.30;3.90;;;;;;;18.05;41.57;99407.95;107368;1254;75181;-39
2023/05/16 09:43:10;;;;;;;7.90;4.00;;;;;;;17.99;41.87;99414.83;107321;1256;70032;-39
2023/05/16 09:45:38;;;;;;;7.20;4.10;;;;;;;17.92;41.99;99417.25;107082;1254;73945;-39
2023/05/16 09:48:11;;;;;;;5.20;4.00;;;;;;;17.84;41.97;99423.06;107300;1260;62279;-39
2023/05/16 09:50:39;;;;;;;7.20;4.40;;;;;;;17.75;42.41;99421.02;107292;1253;60372;-39
2023/05/16 09:53:07;;;;;;;7.10;4.10;;;;;;;17.70;42.78;99416.05;107238;1256;76015;-39
2023/05/16 09:55:34;;;;;;;7.00;4.20;;;;;;;17.67;42.67;99412.16;107295;1259;67877;-38
2023/05/16 09:58:02;;;;;;;5.30;3.80;;;;;;;17.65;42.91;99411.71;107311;1254;74070;-39
2023/05/16 10:00:30;;;;;;;8.70;4.20;;;;;;;17.67;43.14;99413.10;107357;1254;60841;-39
2023/05/16 10:02:58;;;;;;;8.90;4.20;;;;;;;17.73;43.14;99409.04;107347;1254;61107;-39
2023/05/16 10:05:30;;;;;;;5.40;4.00;;;;;;;17.81;43.00;99407.16;107324;1254;75206;-39
2023/05/16 10:07:57;;;;;;;8.60;4.10;;;;;;;17.88;43.07;99408.30;107077;1254;69249;-39
2023/05/16 10:10:24;;;;;;;5.00;3.80;;;;;;;17.94;42.85;99407.83;107236;1254;74773;-39
2023/05/16 10:12:51;;;;;;;5.90;3.80;;;;;;;18.01;42.73;99404.63;107215;1256;60382;-39
2023/05/16 10:15:19;;;;;;;4.40;3.90;;;;;;;18.08;42.73;99404.93;107240;1254;61901;-39
2023/05/16 10:17:51;;;;;;;8.00;4.10;;;;;;;18.12;42.33;99410.77;107334;1255;75653;-39
2023/05/16 10:20:18;;;;;;;12.00;4.20;;;;;;;18.14;42.38;99405.73;107377;1254;70059;-39
2023/05/16 10:22:45;;;;;;;6.70;4.20;;;;;;;18.16;42.31;99404.69;107312;1254;71751;-39
2023/05/16 10:25:28;;;;;;;9.70;3.90;;;;;;;18.20;42.52;99403.08;107344;1256;61461;-39
2023/05/16 10:27:57;;;;;;;7.00;3.40;;;;;;;18.28;42.52;99406.05;107370;1260;62834;-39
2023/05/16 10:30:24;;;;;;;6.80;4.40;;;;;;;18.35;42.68;99397.73;107272;1256;75301;-39
2023/05/16 10:32:52;;;;;;;4.70;3.50;;;;;;;18.47;42.79;99394.92;107365;1254;69960;-39
2023/05/16 10:35:20;;;;;;;7.10;4.20;;;;;;;18.62;42.64;99396.48;107257;1256;74592;-40
2023/05/16 10:37:49;;;;;;;9.20;4.30;;;;;;;18.78;42.52;99392.50;107244;1256;62488;-40
2023/05/16 10:40:16;;;;;;;7.40;4.00;;;;;;;18.91;42.36;99387.29;107326;1254;61139;-39
2023/05/16 10:42:55;;;;;;;7.30;4.00;;;;;;;19.02;42.31;99388.94;107308;1255;75662;-40
2023/05/16 10:45:23;;;;;;;6.50;4.00;;;;;;;19.16;41.63;99389.91;107359;1256;67905;-39
2023/05/16 10:47:55;;;;;;;7.50;3.90;;;;;;;19.18;41.76;99388.77;107365;1254;74238;-39
2023/05/16 10:50:42;;;;;;;7.80;3.90;;;;;;;19.18;41.86;99383.83;107244;1256;62073;-39
2023/05/16 10:53:33;;;;;;;5.60;4.30;;;;;;;19.14;41.96;99388.05;107323;1254;61198;-40
2023/05/16 10:56:02;;;;;;;7.70;4.20;;;;;;;19.07;42.17;99386.90;107256;1261;75028;-39
2023/05/16 10:58:33;;;;;;;10.50;4.00;;;;;;;18.99;42.33;99386.95;107382;1256;69959;-39
2023/05/16 11:01:33;;;;;;;6.30;4.30;;;;;;;18.93;42.39;99384.59;107313;1260;74977;-39
2023/05/16 11:04:02;;;;;;;;;;;;;;;18.89;42.69;99387.56;107317;1256;62976;-39
2023/05/16 11:06:34;;;;;;;6.00;3.70;;;;;;;18.76;43.11;99379.11;107274;1255;60373;-39
2023/05/16 11:09:10;;;;;;;6.90;4.30;;;;;;;18.67;43.24;99376.10;107360;1254;76256;-39
2023/05/16 11:11:50;;;;;;;5.90;3.90;;;;;;;18.65;43.52;99375.33;107299;1260;70294;-39
2023/05/16 11:14:41;;;;;;;8.00;4.20;;;;;;;18.66;43.44;99369.98;107226;1256;74687;-39
2023/05/16 11:17:15;;;;;;;7.20;4.20;;;;;;;18.67;43.59;99373.05;107262;1255;62568;-40
2023/05/16 11:19:44;;;;;;;6.80;4.10;;;;;;;18.68;43.55;99372.01;107288;1256;62425;-39
2023/05/16 11:22:28;;;;;;;7.20;3.60;;;;;;;18.69;43.68;99367.91;107286;1254;76168;-40
2023/05/16 11:25:00;;;;;;;5.20;3.60;;;;;;;18.71;43.81;99367.81;107356;1254;69788;-39
2023/05/16 11:27:29;;;;;;;7.10;4.00;;;;;;;18.69;44.14;99362.56;107310;1256;74857;-39
2023/05/16 11:30:06;;;;;;;5.30;3.90;;;;;;;18.76;43.48;99367.81;107425;1256;60539;-39
2023/05/16 11:32:34;;;;;;;7.80;4.00;;;;;;;18.77;43.79;99373.92;107322;1256;60794;-39
2023/05/16 11:35:02;;;;;;;7.50;3.90;;;;;;;18.78;43.35;99380.19;107444;1254;73622;-39
2023/05/16 11:37:30;;;;;;;5.30;4.00;;;;;;;18.76;43.67;99378.16;107434;1256;68116;-39
2023/05/16 11:40:05;;;;;;;4.20;3.80;;;;;;;18.76;43.36;99381.15;107403;1256;74995;-39